MAY 25,2015


METAR SMJP 252300Z 02003KT 9999 FEW010 FEW018CB SCT030 25/24 Q1012 NOSIG=

METAR SMZO 252300Z 05004KT 8000 –SHRA SCT010 BKN020 26/25 Q1012 NOSIG=

METAR SMNI 252300Z NIL=

METAR SMST 252300Z NIL=